createdAt,value
2016-12-24T00:00:47.061Z,0
2016-12-24T00:01:47.047Z,0
2016-12-24T00:02:47.024Z,0
2016-12-24T00:03:47.017Z,0
2016-12-24T00:04:46.993Z,0
2016-12-24T00:05:46.978Z,0
2016-12-24T00:06:46.962Z,0
2016-12-24T00:07:46.941Z,0
2016-12-24T00:08:46.933Z,0
2016-12-24T00:09:46.905Z,0
2016-12-24T00:10:46.894Z,0
2016-12-24T00:11:46.873Z,0
2016-12-24T00:12:46.858Z,0
2016-12-24T00:13:46.841Z,0
2016-12-24T00:14:46.819Z,0
2016-12-24T00:15:46.802Z,0
2016-12-24T00:16:46.789Z,0
2016-12-24T00:17:46.770Z,0
2016-12-24T00:18:46.751Z,0
2016-12-24T00:19:46.741Z,0
2016-12-24T00:20:46.720Z,0
2016-12-24T00:21:46.905Z,0
2016-12-24T00:22:46.693Z,0
2016-12-24T00:23:46.692Z,0
2016-12-24T00:24:46.649Z,0
2016-12-24T00:25:46.636Z,0
2016-12-24T00:26:46.622Z,0
2016-12-24T00:27:46.600Z,0
2016-12-24T00:28:46.898Z,0
2016-12-24T00:29:47.004Z,0
2016-12-24T00:30:46.731Z,0
2016-12-24T00:31:46.533Z,0
2016-12-24T00:32:46.524Z,0
2016-12-24T00:33:46.501Z,0
2016-12-24T00:34:46.702Z,0
2016-12-24T00:35:47.184Z,0
2016-12-24T00:36:47.191Z,0
2016-12-24T00:37:47.572Z,0
2016-12-24T00:38:46.850Z,0
2016-12-24T00:39:46.405Z,0
2016-12-24T00:40:46.385Z,0
2016-12-24T00:41:46.617Z,0
2016-12-24T00:42:46.934Z,0
2016-12-24T00:43:47.348Z,0
2016-12-24T00:44:47.438Z,0
2016-12-24T00:45:46.843Z,0
2016-12-24T00:46:46.283Z,0
2016-12-24T00:47:46.262Z,0
2016-12-24T00:48:46.509Z,0
2016-12-24T00:49:47.350Z,0
2016-12-24T00:50:47.470Z,0
2016-12-24T00:51:46.960Z,0
2016-12-24T00:52:46.519Z,0
2016-12-24T00:53:46.165Z,0
2016-12-24T00:54:46.155Z,0
2016-12-24T00:55:46.468Z,0
2016-12-24T00:56:47.127Z,0
2016-12-24T00:57:46.913Z,0
2016-12-24T00:58:46.795Z,0
2016-12-24T00:59:46.839Z,0
2016-12-24T01:00:46.305Z,0
2016-12-24T01:01:46.093Z,0
2016-12-24T01:02:46.027Z,0
2016-12-24T01:03:46.286Z,0
2016-12-24T01:04:47.089Z,0
2016-12-24T01:05:46.969Z,0
2016-12-24T01:06:47.103Z,0
2016-12-24T01:07:46.954Z,0
2016-12-24T01:08:46.612Z,0
2016-12-24T01:09:45.911Z,0
2016-12-24T01:10:45.888Z,0
2016-12-24T01:11:45.879Z,0
2016-12-24T01:12:46.070Z,0
2016-12-24T01:13:46.777Z,0
2016-12-24T01:14:46.558Z,0
2016-12-24T01:15:46.968Z,0
2016-12-24T01:16:45.934Z,0
2016-12-24T01:17:45.775Z,0
2016-12-24T01:18:45.762Z,0
2016-12-24T01:19:45.746Z,0
2016-12-24T01:20:46.682Z,0
2016-12-24T01:21:45.717Z,0
2016-12-24T01:22:45.695Z,0
2016-12-24T01:23:46.002Z,0
2016-12-24T01:24:46.542Z,0
2016-12-24T01:25:46.759Z,0
2016-12-24T01:26:45.781Z,0
2016-12-24T01:27:46.357Z,0
2016-12-24T01:28:45.699Z,0
2016-12-24T01:29:45.577Z,0
2016-12-24T01:30:45.563Z,0
2016-12-24T01:31:46.028Z,0
2016-12-24T01:32:46.590Z,0
2016-12-24T01:33:46.082Z,0
2016-12-24T01:34:46.501Z,0
2016-12-24T01:35:45.620Z,0
2016-12-24T01:36:46.028Z,0
2016-12-24T01:37:46.312Z,0
2016-12-24T01:38:45.437Z,0
2016-12-24T01:39:45.418Z,0
2016-12-24T01:40:45.403Z,0
2016-12-24T01:41:46.311Z,0
2016-12-24T01:42:46.161Z,0
2016-12-24T01:43:46.303Z,0
2016-12-24T01:44:46.192Z,0
2016-12-24T01:45:45.893Z,0
2016-12-24T01:46:45.306Z,0
2016-12-24T01:47:45.289Z,0
2016-12-24T01:48:45.266Z,0
2016-12-24T01:49:45.711Z,0
2016-12-24T01:50:46.305Z,0
2016-12-24T01:51:45.916Z,0
2016-12-24T01:52:46.029Z,0
2016-12-24T01:53:45.444Z,0
2016-12-24T01:54:45.171Z,0
2016-12-24T01:55:45.156Z,0
2016-12-24T01:56:45.143Z,0
2016-12-24T01:57:45.122Z,0
2016-12-24T01:58:45.109Z,0
2016-12-24T01:59:45.096Z,0
2016-12-24T02:00:45.081Z,0
2016-12-24T02:01:45.060Z,0
2016-12-24T02:02:45.045Z,0
2016-12-24T02:03:45.028Z,0
2016-12-24T02:04:45.009Z,0
2016-12-24T02:05:44.999Z,0
2016-12-24T02:06:44.978Z,0
2016-12-24T02:07:44.963Z,0
2016-12-24T02:08:44.940Z,0
2016-12-24T02:09:44.932Z,0
2016-12-24T02:10:44.910Z,0
2016-12-24T02:11:44.894Z,0
2016-12-24T02:12:44.879Z,0
2016-12-24T02:13:45.193Z,0
2016-12-24T02:14:44.846Z,0
2016-12-24T02:15:44.833Z,0
2016-12-24T02:16:44.813Z,0
2016-12-24T02:17:44.801Z,0
2016-12-24T02:18:44.785Z,0
2016-12-24T02:19:44.765Z,0
2016-12-24T02:20:44.750Z,0
2016-12-24T02:21:45.046Z,0
2016-12-24T02:22:44.714Z,0
2016-12-24T02:23:44.695Z,0
2016-12-24T02:24:44.704Z,0
2016-12-24T02:25:44.674Z,0
2016-12-24T02:26:44.657Z,0
2016-12-24T02:27:44.636Z,0
2016-12-24T02:28:44.938Z,0
2016-12-24T02:29:44.607Z,0
2016-12-24T02:30:44.586Z,0
2016-12-24T02:31:44.570Z,0
2016-12-24T02:32:44.551Z,0
2016-12-24T02:33:44.539Z,0
2016-12-24T02:34:44.521Z,0
2016-12-24T02:35:57.886Z,0
2016-12-24T02:36:44.720Z,0
2016-12-24T02:37:44.474Z,0
2016-12-24T02:38:45.716Z,0
2016-12-24T02:39:44.438Z,0
2016-12-24T02:40:44.426Z,0
2016-12-24T02:41:45.329Z,0
2016-12-24T02:42:44.393Z,0
2016-12-24T02:43:44.695Z,0
2016-12-24T02:44:45.388Z,0
2016-12-24T02:45:44.361Z,0
2016-12-24T02:46:44.351Z,0
2016-12-24T02:47:44.637Z,0
2016-12-24T02:48:44.293Z,0
2016-12-24T02:49:44.277Z,0
2016-12-24T02:50:44.443Z,0
2016-12-24T02:51:44.263Z,0
2016-12-24T02:52:44.230Z,0
2016-12-24T02:53:44.322Z,0
2016-12-24T02:54:44.202Z,0
2016-12-24T02:55:44.179Z,0
2016-12-24T02:56:44.681Z,0
2016-12-24T02:57:44.150Z,0
2016-12-24T02:58:44.133Z,0
2016-12-24T02:59:44.440Z,0
2016-12-24T03:00:44.102Z,0
2016-12-24T03:01:44.817Z,0
2016-12-24T03:02:44.067Z,0
2016-12-24T03:03:44.050Z,0
2016-12-24T03:04:44.639Z,0
2016-12-24T03:05:44.027Z,0
2016-12-24T03:06:44.004Z,0
2016-12-24T03:07:44.690Z,0
2016-12-24T03:08:43.978Z,0
2016-12-24T03:09:43.955Z,0
2016-12-24T03:10:44.649Z,0
2016-12-24T03:11:43.927Z,0
2016-12-24T03:12:44.546Z,0
2016-12-24T03:13:44.201Z,0
2016-12-24T03:14:43.878Z,0
2016-12-24T03:15:43.858Z,0
2016-12-24T03:16:44.400Z,0
2016-12-24T03:17:43.857Z,0
2016-12-24T03:18:43.818Z,0
2016-12-24T03:19:44.497Z,0
2016-12-24T03:20:43.779Z,0
2016-12-24T03:21:43.768Z,0
2016-12-24T03:22:44.618Z,0
2016-12-24T03:23:43.731Z,0
2016-12-24T03:24:43.718Z,0
2016-12-24T03:25:43.701Z,0
2016-12-24T03:26:43.694Z,0
2016-12-24T03:27:43.671Z,0
2016-12-24T03:28:43.658Z,0
2016-12-24T03:29:43.959Z,0
2016-12-24T03:30:43.623Z,0
2016-12-24T03:31:43.603Z,0
2016-12-24T03:32:43.593Z,0
2016-12-24T03:33:43.795Z,0
2016-12-24T03:34:43.588Z,0
2016-12-24T03:35:43.613Z,0
2016-12-24T03:36:43.526Z,0
2016-12-24T03:37:43.514Z,0
2016-12-24T03:38:43.490Z,0
2016-12-24T03:39:43.478Z,0
2016-12-24T03:40:43.463Z,0
2016-12-24T03:41:43.453Z,0
2016-12-24T03:42:43.463Z,0
2016-12-24T03:43:43.420Z,0
2016-12-24T03:44:43.400Z,0
2016-12-24T03:45:43.388Z,0
2016-12-24T03:46:43.372Z,0
2016-12-24T03:47:43.380Z,0
2016-12-24T03:48:43.338Z,0
2016-12-24T03:49:43.321Z,0
2016-12-24T03:50:43.623Z,0
2016-12-24T03:51:43.294Z,0
2016-12-24T03:52:43.273Z,0
2016-12-24T03:53:43.258Z,0
2016-12-24T03:54:43.247Z,0
2016-12-24T03:55:43.225Z,0
2016-12-24T03:56:43.205Z,0
2016-12-24T03:57:43.195Z,0
2016-12-24T03:58:43.181Z,0
2016-12-24T03:59:43.183Z,0
2016-12-24T04:00:43.147Z,0
2016-12-24T04:01:43.133Z,0
2016-12-24T04:02:43.116Z,0
2016-12-24T04:03:43.097Z,0
2016-12-24T04:04:43.089Z,0
2016-12-24T04:05:43.157Z,0
2016-12-24T04:06:43.060Z,0
2016-12-24T04:07:43.386Z,0
2016-12-24T04:08:43.019Z,0
2016-12-24T04:09:43.009Z,0
2016-12-24T04:10:42.990Z,0
2016-12-24T04:11:42.975Z,0
2016-12-24T04:12:42.958Z,0
2016-12-24T04:13:42.944Z,0
2016-12-24T04:14:42.924Z,0
2016-12-24T04:15:42.916Z,0
2016-12-24T04:16:43.219Z,0
2016-12-24T04:17:42.877Z,0
2016-12-24T04:18:42.857Z,0
2016-12-24T04:19:42.847Z,0
2016-12-24T04:20:42.828Z,0
2016-12-24T04:21:42.817Z,0
2016-12-24T04:22:42.796Z,0
2016-12-24T04:23:43.099Z,0
2016-12-24T04:24:42.762Z,0
2016-12-24T04:25:43.064Z,0
2016-12-24T04:26:42.735Z,0
2016-12-24T04:27:42.719Z,0
2016-12-24T04:28:42.703Z,0
2016-12-24T04:29:42.687Z,0
2016-12-24T04:30:42.671Z,0
2016-12-24T04:31:42.684Z,0
2016-12-24T04:32:42.636Z,0
2016-12-24T04:33:42.620Z,0
2016-12-24T04:34:42.632Z,0
2016-12-24T04:35:42.589Z,0
2016-12-24T04:36:42.891Z,0
2016-12-24T04:37:42.562Z,0
2016-12-24T04:38:42.544Z,0
2016-12-24T04:39:42.548Z,0
2016-12-24T04:40:42.510Z,0
2016-12-24T04:41:42.492Z,0
2016-12-24T04:42:42.479Z,0
2016-12-24T04:43:42.458Z,0
2016-12-24T04:44:42.446Z,0
2016-12-24T04:45:42.432Z,0
2016-12-24T04:46:42.417Z,0
2016-12-24T04:47:42.399Z,0
2016-12-24T04:48:42.378Z,0
2016-12-24T04:49:42.375Z,0
2016-12-24T04:50:42.390Z,0
2016-12-24T04:51:42.339Z,0
2016-12-24T04:52:42.351Z,0
2016-12-24T04:53:42.315Z,0
2016-12-24T04:54:42.295Z,0
2016-12-24T04:55:42.287Z,0
2016-12-24T04:56:42.260Z,0
2016-12-24T04:57:42.245Z,0
2016-12-24T04:58:42.228Z,0
2016-12-24T04:59:42.206Z,0
2016-12-24T05:00:42.189Z,0
2016-12-24T05:01:42.180Z,0
2016-12-24T05:02:42.158Z,0
2016-12-24T05:03:42.141Z,0
2016-12-24T05:04:42.126Z,0
2016-12-24T05:05:42.109Z,0
2016-12-24T05:06:42.101Z,0
2016-12-24T05:07:42.075Z,0
2016-12-24T05:08:42.061Z,0
2016-12-24T05:09:42.045Z,0
2016-12-24T05:10:42.360Z,0
2016-12-24T05:11:42.011Z,0
2016-12-24T05:12:41.997Z,0
2016-12-24T05:13:42.295Z,0
2016-12-24T05:14:41.970Z,0
2016-12-24T05:15:41.951Z,0
2016-12-24T05:16:41.933Z,0
2016-12-24T05:17:41.919Z,0
2016-12-24T05:18:41.906Z,0
2016-12-24T05:19:41.888Z,0
2016-12-24T05:20:41.871Z,0
2016-12-24T05:21:41.858Z,0
2016-12-24T05:22:41.846Z,0
2016-12-24T05:23:41.826Z,0
2016-12-24T05:24:41.810Z,0
2016-12-24T05:25:41.799Z,0
2016-12-24T05:26:41.780Z,0
2016-12-24T05:27:41.765Z,0
2016-12-24T05:28:41.747Z,0
2016-12-24T05:29:41.733Z,0
2016-12-24T05:30:41.714Z,0
2016-12-24T05:31:41.701Z,0
2016-12-24T05:32:41.689Z,0
2016-12-24T05:33:41.671Z,0
2016-12-24T05:34:41.920Z,0
2016-12-24T05:35:41.954Z,0
2016-12-24T05:36:41.622Z,0
2016-12-24T05:37:41.608Z,0
2016-12-24T05:38:41.867Z,0
2016-12-24T05:39:41.577Z,0
2016-12-24T05:40:41.623Z,0
2016-12-24T05:41:42.145Z,0
2016-12-24T05:42:42.614Z,0
2016-12-24T05:43:42.792Z,0
2016-12-24T05:44:41.687Z,0
2016-12-24T05:45:41.486Z,0
2016-12-24T05:46:41.466Z,0
2016-12-24T05:47:42.029Z,0
2016-12-24T05:48:41.970Z,0
2016-12-24T05:49:42.284Z,0
2016-12-24T05:50:42.278Z,0
2016-12-24T05:51:41.455Z,0
2016-12-24T05:52:41.371Z,0
2016-12-24T05:53:41.354Z,0
2016-12-24T05:54:41.497Z,0
2016-12-24T05:55:41.577Z,0
2016-12-24T05:56:42.068Z,0
2016-12-24T05:57:42.130Z,0
2016-12-24T05:58:41.864Z,0
2016-12-24T05:59:41.672Z,0
2016-12-24T06:00:41.250Z,0
2016-12-24T06:01:41.547Z,0
2016-12-24T06:02:41.213Z,0
2016-12-24T06:03:41.453Z,0
2016-12-24T06:04:41.807Z,0
2016-12-24T06:05:41.732Z,0
2016-12-24T06:06:41.651Z,0
2016-12-24T06:07:41.138Z,0
2016-12-24T06:08:41.121Z,0
2016-12-24T06:09:41.105Z,0
2016-12-24T06:10:41.696Z,0
2016-12-24T06:11:41.927Z,0
2016-12-24T06:12:42.110Z,0
2016-12-24T06:13:41.679Z,0
2016-12-24T06:14:41.897Z,0
2016-12-24T06:15:41.011Z,0
2016-12-24T06:16:40.997Z,0
2016-12-24T06:17:41.801Z,0
2016-12-24T06:18:42.034Z,0
2016-12-24T06:19:41.503Z,0
2016-12-24T06:20:42.084Z,0
2016-12-24T06:21:40.915Z,0
2016-12-24T06:22:40.896Z,0
2016-12-24T06:23:40.882Z,0
2016-12-24T06:24:41.066Z,0
2016-12-24T06:25:41.697Z,0
2016-12-24T06:26:41.457Z,0
2016-12-24T06:27:41.640Z,0
2016-12-24T06:28:41.817Z,0
2016-12-24T06:29:41.004Z,0
2016-12-24T06:30:41.725Z,0
2016-12-24T06:31:40.762Z,0
2016-12-24T06:32:40.741Z,0
2016-12-24T06:33:40.866Z,0
2016-12-24T06:34:41.439Z,0
2016-12-24T06:35:41.498Z,0
2016-12-24T06:36:41.423Z,0
2016-12-24T06:37:41.466Z,0
2016-12-24T06:38:40.647Z,0
2016-12-24T06:39:40.633Z,0
2016-12-24T06:40:40.613Z,0
2016-12-24T06:41:41.141Z,0
2016-12-24T06:42:41.339Z,0
2016-12-24T06:43:41.433Z,0
2016-12-24T06:44:41.345Z,0
2016-12-24T06:45:40.535Z,0
2016-12-24T06:46:41.525Z,0
2016-12-24T06:47:40.962Z,0
2016-12-24T06:48:40.485Z,0
2016-12-24T06:49:40.468Z,0
2016-12-24T06:50:40.454Z,0
2016-12-24T06:51:40.784Z,0
2016-12-24T06:52:41.448Z,0
2016-12-24T06:53:41.523Z,0
2016-12-24T06:54:40.669Z,0
2016-12-24T06:55:40.370Z,0
2016-12-24T06:56:40.362Z,0
2016-12-24T06:57:40.340Z,0
2016-12-24T06:58:40.746Z,0
2016-12-24T06:59:41.502Z,0
2016-12-24T07:00:41.436Z,0
2016-12-24T07:01:41.504Z,0
2016-12-24T07:02:40.764Z,0
2016-12-24T07:03:40.250Z,0
2016-12-24T07:04:40.238Z,0
2016-12-24T07:05:40.219Z,0
2016-12-24T07:06:40.902Z,0
2016-12-24T07:07:40.186Z,0
2016-12-24T07:08:40.174Z,0
2016-12-24T07:09:40.152Z,0
2016-12-24T07:10:40.137Z,0
2016-12-24T07:11:40.145Z,0
2016-12-24T07:12:40.106Z,0
2016-12-24T07:13:40.086Z,0
2016-12-24T07:14:40.076Z,0
2016-12-24T07:15:40.062Z,0
2016-12-24T07:16:40.360Z,0
2016-12-24T07:17:40.024Z,0
2016-12-24T07:18:40.007Z,5
2016-12-24T07:19:39.995Z,5
2016-12-24T07:20:40.294Z,5
2016-12-24T07:21:39.978Z,5
2016-12-24T07:22:39.941Z,5
2016-12-24T07:23:39.931Z,5
2016-12-24T07:24:39.914Z,5
2016-12-24T07:25:39.900Z,5
2016-12-24T07:26:39.884Z,0
2016-12-24T07:27:39.874Z,5
2016-12-24T07:28:39.852Z,0
2016-12-24T07:29:39.836Z,5
2016-12-24T07:30:39.822Z,5
2016-12-24T07:31:39.819Z,5
2016-12-24T07:32:39.789Z,5
2016-12-24T07:33:39.768Z,0
2016-12-24T07:34:39.757Z,5
2016-12-24T07:35:39.742Z,0
2016-12-24T07:36:39.724Z,0
2016-12-24T07:37:39.709Z,5
2016-12-24T07:38:39.697Z,5
2016-12-24T07:39:39.674Z,5
2016-12-24T07:40:39.665Z,5
2016-12-24T07:41:39.655Z,5
2016-12-24T07:42:39.628Z,5
2016-12-24T07:43:39.609Z,5
2016-12-24T07:44:39.602Z,10
2016-12-24T07:45:39.589Z,10
2016-12-24T07:46:39.567Z,5
2016-12-24T07:47:39.552Z,10
2016-12-24T07:48:39.537Z,10
2016-12-24T07:49:39.522Z,10
2016-12-24T07:50:39.508Z,10
2016-12-24T07:51:39.494Z,10
2016-12-24T07:52:39.475Z,5
2016-12-24T07:53:39.461Z,10
2016-12-24T07:54:39.763Z,10
2016-12-24T07:55:39.429Z,10
2016-12-24T07:56:39.416Z,10
2016-12-24T07:57:39.396Z,10
2016-12-24T07:58:39.383Z,10
2016-12-24T07:59:39.364Z,15
2016-12-24T08:00:39.352Z,15
2016-12-24T08:01:39.341Z,15
2016-12-24T08:02:39.322Z,15
2016-12-24T08:03:39.305Z,10
2016-12-24T08:04:39.293Z,10
2016-12-24T08:05:39.586Z,10
2016-12-24T08:06:39.260Z,10
2016-12-24T08:07:39.243Z,10
2016-12-24T08:08:39.231Z,10
2016-12-24T08:09:39.215Z,10
2016-12-24T08:10:39.197Z,10
2016-12-24T08:11:39.181Z,10
2016-12-24T08:12:39.164Z,10
2016-12-24T08:13:39.149Z,10
2016-12-24T08:14:39.138Z,10
2016-12-24T08:15:39.118Z,10
2016-12-24T08:16:39.417Z,10
2016-12-24T08:17:39.087Z,10
2016-12-24T08:18:39.078Z,10
2016-12-24T08:19:39.056Z,10
2016-12-24T08:20:39.051Z,10
2016-12-24T08:21:39.343Z,10
2016-12-24T08:22:39.008Z,10
2016-12-24T08:23:39.000Z,15
2016-12-24T08:24:38.979Z,15
2016-12-24T08:25:38.962Z,15
2016-12-24T08:26:38.945Z,15
2016-12-24T08:27:38.932Z,15
2016-12-24T08:28:38.923Z,15
2016-12-24T08:29:38.904Z,15
2016-12-24T08:30:38.885Z,20
2016-12-24T08:31:38.876Z,20
2016-12-24T08:32:38.867Z,20
2016-12-24T08:33:38.839Z,20
2016-12-24T08:34:38.826Z,25
2016-12-24T08:35:38.810Z,20
2016-12-24T08:36:39.076Z,25
2016-12-24T08:37:39.091Z,25
2016-12-24T08:38:38.769Z,20
2016-12-24T08:39:38.750Z,20
2016-12-24T08:40:38.735Z,20
2016-12-24T08:41:38.717Z,20
2016-12-24T08:42:38.705Z,20
2016-12-24T08:43:38.683Z,20
2016-12-24T08:44:38.673Z,20
2016-12-24T08:45:38.657Z,20
2016-12-24T08:46:38.643Z,20
2016-12-24T08:47:38.634Z,15
2016-12-24T08:48:38.629Z,10
2016-12-24T08:49:38.909Z,10
2016-12-24T08:50:38.582Z,10
2016-12-24T08:51:38.561Z,15
2016-12-24T08:52:38.549Z,15
2016-12-24T08:53:38.534Z,20
2016-12-24T08:54:38.554Z,20
2016-12-24T08:55:38.501Z,20
2016-12-24T08:56:38.538Z,20
2016-12-24T08:57:38.496Z,25
2016-12-24T08:58:38.462Z,25
2016-12-24T08:59:38.442Z,30
2016-12-24T09:00:38.426Z,35
2016-12-24T09:01:38.425Z,35
2016-12-24T09:02:38.401Z,30
2016-12-24T09:03:38.377Z,30
2016-12-24T09:04:38.363Z,30
2016-12-24T09:05:38.351Z,35
2016-12-24T09:06:38.331Z,35
2016-12-24T09:07:38.317Z,35
2016-12-24T09:08:38.303Z,45
2016-12-24T09:09:38.288Z,40
2016-12-24T09:10:38.270Z,40
2016-12-24T09:11:38.265Z,40
2016-12-24T09:12:38.564Z,40
2016-12-24T09:13:38.226Z,40
2016-12-24T09:14:38.211Z,40
2016-12-24T09:15:38.202Z,45
2016-12-24T09:16:38.180Z,45
2016-12-24T09:17:38.166Z,45
2016-12-24T09:18:38.462Z,50
2016-12-24T09:19:38.132Z,55
2016-12-24T09:20:38.119Z,50
2016-12-24T09:21:38.105Z,50
2016-12-24T09:22:38.088Z,55
2016-12-24T09:23:38.072Z,55
2016-12-24T09:24:38.058Z,45
2016-12-24T09:25:38.037Z,50
2016-12-24T09:26:38.023Z,45
2016-12-24T09:27:38.008Z,50
2016-12-24T09:28:37.994Z,50
2016-12-24T09:29:37.977Z,50
2016-12-24T09:30:37.962Z,50
2016-12-24T09:31:37.949Z,55
2016-12-24T09:32:37.932Z,60
2016-12-24T09:33:37.915Z,65
2016-12-24T09:34:37.900Z,70
2016-12-24T09:35:37.886Z,65
2016-12-24T09:36:37.921Z,65
2016-12-24T09:37:37.860Z,75
2016-12-24T09:38:37.845Z,80
2016-12-24T09:39:37.823Z,85
2016-12-24T09:40:37.809Z,80
2016-12-24T09:41:37.804Z,75
2016-12-24T09:42:37.773Z,70
2016-12-24T09:43:37.764Z,70
2016-12-24T09:44:37.744Z,65
2016-12-24T09:45:37.740Z,65
2016-12-24T09:46:37.718Z,65
2016-12-24T09:47:37.702Z,60
2016-12-24T09:48:37.689Z,60
2016-12-24T09:49:37.668Z,55
2016-12-24T09:50:37.656Z,55
2016-12-24T09:51:37.639Z,55
2016-12-24T09:52:37.622Z,55
2016-12-24T09:53:37.610Z,50
2016-12-24T09:54:37.619Z,50
2016-12-24T09:55:37.580Z,45
2016-12-24T09:56:37.565Z,45
2016-12-24T09:57:37.551Z,50
2016-12-24T09:58:37.532Z,40
2016-12-24T09:59:37.523Z,40
2016-12-24T10:00:37.505Z,45
2016-12-24T10:01:37.484Z,40
2016-12-24T10:02:37.787Z,45
2016-12-24T10:03:37.458Z,45
2016-12-24T10:04:37.442Z,45
2016-12-24T10:05:37.425Z,50
2016-12-24T10:06:37.415Z,55
2016-12-24T10:07:37.709Z,60
2016-12-24T10:08:37.383Z,60
2016-12-24T10:09:37.397Z,65
2016-12-24T10:10:37.381Z,65
2016-12-24T10:11:37.336Z,60
2016-12-24T10:12:37.320Z,55
2016-12-24T10:13:37.303Z,60
2016-12-24T10:14:37.290Z,55
2016-12-24T10:15:37.276Z,55
2016-12-24T10:16:37.263Z,60
2016-12-24T10:17:37.245Z,55
2016-12-24T10:18:37.227Z,60
2016-12-24T10:19:37.217Z,50
2016-12-24T10:20:37.198Z,45
2016-12-24T10:21:37.189Z,55
2016-12-24T10:22:37.170Z,50
2016-12-24T10:23:37.157Z,45
2016-12-24T10:24:37.138Z,50
2016-12-24T10:25:37.158Z,50
2016-12-24T10:26:37.115Z,60
2016-12-24T10:27:37.096Z,60
2016-12-24T10:28:37.076Z,55
2016-12-24T10:29:37.064Z,60
2016-12-24T10:30:37.052Z,60
2016-12-24T10:31:37.035Z,70
2016-12-24T10:32:37.020Z,65
2016-12-24T10:33:37.002Z,70
2016-12-24T10:34:36.992Z,70
2016-12-24T10:35:36.973Z,60
2016-12-24T10:36:36.963Z,75
2016-12-24T10:37:36.940Z,65
2016-12-24T10:38:36.924Z,65
2016-12-24T10:39:36.920Z,75
2016-12-24T10:40:36.901Z,65
2016-12-24T10:41:36.882Z,65
2016-12-24T10:42:36.865Z,60
2016-12-24T10:43:36.855Z,65
2016-12-24T10:44:36.833Z,65
2016-12-24T10:45:36.818Z,75
2016-12-24T10:46:36.812Z,75
2016-12-24T10:47:36.800Z,85
2016-12-24T10:48:36.778Z,100
2016-12-24T10:49:36.760Z,105
2016-12-24T10:50:36.746Z,100
2016-12-24T10:51:37.047Z,95
2016-12-24T10:52:36.718Z,115
2016-12-24T10:53:36.703Z,105
2016-12-24T10:54:36.699Z,115
2016-12-24T10:55:36.676Z,105
2016-12-24T10:56:36.655Z,90
2016-12-24T10:57:36.646Z,85
2016-12-24T10:58:36.627Z,90
2016-12-24T10:59:36.614Z,90
2016-12-24T11:00:36.597Z,85
2016-12-24T11:01:36.609Z,90
2016-12-24T11:02:36.567Z,90
2016-12-24T11:03:36.556Z,80
2016-12-24T11:04:36.537Z,75
2016-12-24T11:05:36.525Z,75
2016-12-24T11:06:36.511Z,70
2016-12-24T11:07:36.501Z,70
2016-12-24T11:08:36.476Z,60
2016-12-24T11:09:36.469Z,60
2016-12-24T11:10:36.451Z,55
2016-12-24T11:11:36.439Z,50
2016-12-24T11:12:36.423Z,40
2016-12-24T11:13:36.407Z,40
2016-12-24T11:14:36.397Z,40
2016-12-24T11:15:36.377Z,35
2016-12-24T11:16:36.401Z,35
2016-12-24T11:17:36.344Z,40
2016-12-24T11:18:36.331Z,40
2016-12-24T11:19:36.317Z,35
2016-12-24T11:20:36.325Z,30
2016-12-24T11:21:36.284Z,35
2016-12-24T11:22:36.274Z,35
2016-12-24T11:23:36.575Z,35
2016-12-24T11:24:36.240Z,35
2016-12-24T11:25:36.229Z,35
2016-12-24T11:26:36.215Z,35
2016-12-24T11:27:36.197Z,35
2016-12-24T11:28:36.188Z,30
2016-12-24T11:29:36.175Z,30
2016-12-24T11:30:36.155Z,30
2016-12-24T11:31:36.142Z,35
2016-12-24T11:32:36.130Z,40
2016-12-24T11:33:36.109Z,40
2016-12-24T11:34:36.107Z,50
2016-12-24T11:35:36.081Z,55
2016-12-24T11:36:36.067Z,70
2016-12-24T11:37:36.049Z,80
2016-12-24T11:38:36.037Z,80
2016-12-24T11:39:36.031Z,75
2016-12-24T11:40:36.010Z,80
2016-12-24T11:41:35.988Z,75
2016-12-24T11:42:35.976Z,65
2016-12-24T11:43:35.961Z,60
2016-12-24T11:44:35.979Z,55
2016-12-24T11:45:36.243Z,85
2016-12-24T11:46:35.917Z,75
2016-12-24T11:47:35.900Z,70
2016-12-24T11:48:35.895Z,60
2016-12-24T11:49:35.872Z,50
2016-12-24T11:50:35.880Z,25
2016-12-24T11:51:35.850Z,35
2016-12-24T11:52:35.826Z,40
2016-12-24T11:53:35.815Z,45
2016-12-24T11:54:35.793Z,30
2016-12-24T11:55:35.785Z,30
2016-12-24T11:56:35.769Z,35
2016-12-24T11:57:35.756Z,55
2016-12-24T11:58:35.738Z,85
2016-12-24T11:59:35.727Z,95
2016-12-24T12:00:35.714Z,70
2016-12-24T12:01:35.730Z,45
2016-12-24T12:02:35.679Z,30
2016-12-24T12:03:35.668Z,30
2016-12-24T12:04:35.651Z,35
2016-12-24T12:05:35.668Z,30
2016-12-24T12:06:35.621Z,35
2016-12-24T12:07:35.610Z,50
2016-12-24T12:08:35.605Z,65
2016-12-24T12:09:35.583Z,45
2016-12-24T12:10:35.564Z,50
2016-12-24T12:11:35.551Z,45
2016-12-24T12:12:35.535Z,55
2016-12-24T12:13:35.519Z,65
2016-12-24T12:14:35.503Z,45
2016-12-24T12:15:35.482Z,50
2016-12-24T12:16:35.477Z,60
2016-12-24T12:17:35.461Z,55
2016-12-24T12:18:35.447Z,50
2016-12-24T12:19:35.452Z,60
2016-12-24T12:20:35.730Z,75
2016-12-24T12:21:35.397Z,75
2016-12-24T12:22:35.387Z,80
2016-12-24T12:23:35.379Z,70
2016-12-24T12:24:35.357Z,75
2016-12-24T12:25:35.341Z,65
2016-12-24T12:26:35.643Z,55
2016-12-24T12:27:35.311Z,75
2016-12-24T12:28:35.305Z,80
2016-12-24T12:29:35.293Z,95
2016-12-24T12:30:35.269Z,115
2016-12-24T12:31:35.251Z,125
2016-12-24T12:32:35.241Z,140
2016-12-24T12:33:35.224Z,150
2016-12-24T12:34:35.212Z,120
2016-12-24T12:35:35.195Z,100
2016-12-24T12:36:35.182Z,110
2016-12-24T12:37:35.165Z,130
2016-12-24T12:38:35.485Z,135
2016-12-24T12:39:35.138Z,110
2016-12-24T12:40:35.126Z,95
2016-12-24T12:41:35.116Z,85
2016-12-24T12:42:35.095Z,60
2016-12-24T12:43:35.077Z,65
2016-12-24T12:44:35.066Z,70
2016-12-24T12:45:35.368Z,80
2016-12-24T12:46:35.039Z,80
2016-12-24T12:47:35.031Z,95
2016-12-24T12:48:35.023Z,90
2016-12-24T12:49:34.996Z,95
2016-12-24T12:50:34.982Z,95
2016-12-24T12:51:34.967Z,105
2016-12-24T12:52:35.276Z,95
2016-12-24T12:53:34.947Z,95
2016-12-24T12:54:34.929Z,100
2016-12-24T12:55:34.942Z,105
2016-12-24T12:56:34.926Z,105
2016-12-24T12:57:34.912Z,105
2016-12-24T12:58:35.230Z,110
2016-12-24T12:59:34.884Z,115
2016-12-24T13:00:34.865Z,115
2016-12-24T13:01:34.884Z,120
2016-12-24T13:02:34.845Z,110
2016-12-24T13:03:34.829Z,95
2016-12-24T13:04:34.819Z,95
2016-12-24T13:05:34.814Z,95
2016-12-24T13:06:34.787Z,120
2016-12-24T13:07:34.774Z,95
2016-12-24T13:08:34.756Z,95
2016-12-24T13:09:34.741Z,95
2016-12-24T13:10:34.728Z,95
2016-12-24T13:11:34.718Z,105
2016-12-24T13:12:34.705Z,115
2016-12-24T13:13:34.691Z,125
2016-12-24T13:14:34.675Z,135
2016-12-24T13:15:34.659Z,135
2016-12-24T13:16:34.647Z,135
2016-12-24T13:17:34.636Z,140
2016-12-24T13:18:34.620Z,135
2016-12-24T13:19:34.599Z,130
2016-12-24T13:20:34.590Z,135
2016-12-24T13:21:34.580Z,135
2016-12-24T13:22:34.563Z,130
2016-12-24T13:23:34.547Z,120
2016-12-24T13:24:34.535Z,110
2016-12-24T13:25:34.521Z,105
2016-12-24T13:26:34.501Z,95
2016-12-24T13:27:34.492Z,95
2016-12-24T13:28:34.471Z,80
2016-12-24T13:29:34.492Z,75
2016-12-24T13:30:34.451Z,85
2016-12-24T13:31:34.439Z,85
2016-12-24T13:32:34.453Z,90
2016-12-24T13:33:34.410Z,100
2016-12-24T13:34:34.394Z,90
2016-12-24T13:35:34.716Z,85
2016-12-24T13:36:34.366Z,80
2016-12-24T13:37:34.351Z,65
2016-12-24T13:38:34.336Z,60
2016-12-24T13:39:34.321Z,65
2016-12-24T13:40:34.314Z,65
2016-12-24T13:41:34.300Z,65
2016-12-24T13:42:34.283Z,70
2016-12-24T13:43:34.274Z,85
2016-12-24T13:44:34.255Z,80
2016-12-24T13:45:34.246Z,65
2016-12-24T13:46:34.227Z,55
2016-12-24T13:47:34.252Z,55
2016-12-24T13:48:34.202Z,40
2016-12-24T13:49:34.186Z,40
2016-12-24T13:50:34.169Z,45
2016-12-24T13:51:34.153Z,45
2016-12-24T13:52:34.142Z,50
2016-12-24T13:53:34.128Z,70
2016-12-24T13:54:34.120Z,70
2016-12-24T13:55:34.124Z,70
2016-12-24T13:56:34.089Z,70
2016-12-24T13:57:34.078Z,55
2016-12-24T13:58:34.061Z,65
2016-12-24T13:59:34.046Z,75
2016-12-24T14:00:34.028Z,65
2016-12-24T14:01:34.021Z,65
2016-12-24T14:02:34.002Z,55
2016-12-24T14:03:33.998Z,45
2016-12-24T14:04:33.972Z,50
2016-12-24T14:05:33.965Z,50
2016-12-24T14:06:33.948Z,45
2016-12-24T14:07:33.934Z,45
2016-12-24T14:08:33.922Z,50
2016-12-24T14:09:33.911Z,50
2016-12-24T14:10:33.891Z,50
2016-12-24T14:11:33.881Z,45
2016-12-24T14:12:33.863Z,40
2016-12-24T14:13:33.850Z,35
2016-12-24T14:14:33.841Z,35
2016-12-24T14:15:33.824Z,35
2016-12-24T14:16:33.810Z,35
2016-12-24T14:17:33.793Z,35
2016-12-24T14:18:33.778Z,35
2016-12-24T14:19:33.766Z,30
2016-12-24T14:20:33.785Z,25
2016-12-24T14:21:33.737Z,25
2016-12-24T14:22:33.721Z,30
2016-12-24T14:23:33.706Z,30
2016-12-24T14:24:33.696Z,30
2016-12-24T14:25:33.674Z,25
2016-12-24T14:26:33.665Z,30
2016-12-24T14:27:33.649Z,25
2016-12-24T14:28:33.637Z,25
2016-12-24T14:29:33.618Z,25
2016-12-24T14:30:33.608Z,25